sensor_id;sensor_type;location;lat;lon;timestamp;pressure;altitude;pressure_sealevel;temperature;humidity
68891;BME280;55932;48.702;8.884;2023-07-13T00:04:30;96150;;;16.4;53
68891;BME280;55932;48.702;8.884;2023-07-13T00:06:50;96160;;;16.4;53
68891;BME280;55932;48.702;8.884;2023-07-13T00:09:21;96150;;;16.3;53
68891;BME280;55932;48.702;8.884;2023-07-13T00:11:51;96150;;;16.3;53
68891;BME280;55932;48.702;8.884;2023-07-13T00:14:09;96150;;;16.2;53
68891;BME280;55932;48.702;8.884;2023-07-13T00:16:40;96140;;;16.2;53
68891;BME280;55932;48.702;8.884;2023-07-13T00:19:11;96140;;;16.2;53
68891;BME280;55932;48.702;8.884;2023-07-13T00:21:41;96140;;;16.2;53
68891;BME280;55932;48.702;8.884;2023-07-13T00:24:13;96130;;;16.2;53
68891;BME280;55932;48.702;8.884;2023-07-13T00:26:42;96130;;;16.2;53
68891;BME280;55932;48.702;8.884;2023-07-13T00:31:43;96120;;;16.3;53
68891;BME280;55932;48.702;8.884;2023-07-13T00:39:14;96110;;;16.9;52.5
68891;BME280;55932;48.702;8.884;2023-07-13T00:41:45;96120;;;17;52.5
68891;BME280;55932;48.702;8.884;2023-07-13T00:44:17;96120;;;17.1;52.5
68891;BME280;55932;48.702;8.884;2023-07-13T00:49:29;96120;;;17.3;52
68891;BME280;55932;48.702;8.884;2023-07-13T00:51:59;96120;;;17.4;52
68891;BME280;55932;48.702;8.884;2023-07-13T00:54:31;96120;;;17.5;52
68891;BME280;55932;48.702;8.884;2023-07-13T00:56:48;96120;;;17.5;52
68891;BME280;55932;48.702;8.884;2023-07-13T01:04:18;96130;;;17.5;52
68891;BME280;55932;48.702;8.884;2023-07-13T01:06:49;96140;;;17.4;52
68891;BME280;55932;48.702;8.884;2023-07-13T01:09:20;96140;;;17.3;52.5
68891;BME280;55932;48.702;8.884;2023-07-13T01:11:50;96140;;;17.2;52.5
68891;BME280;55932;48.702;8.884;2023-07-13T01:19:39;96150;;;16.7;53
68891;BME280;55932;48.702;8.884;2023-07-13T01:21:52;96140;;;16.5;53
68891;BME280;55932;48.702;8.884;2023-07-13T01:24:23;96150;;;16.3;53
68891;BME280;55932;48.702;8.884;2023-07-13T01:29:24;96140;;;16;53.5
68891;BME280;55932;48.702;8.884;2023-07-13T01:31:54;96140;;;15.8;53.5
68891;BME280;55932;48.702;8.884;2023-07-13T01:34:26;96140;;;15.7;53.5
68891;BME280;55932;48.702;8.884;2023-07-13T01:44:27;96130;;;15.4;54
68891;BME280;55932;48.702;8.884;2023-07-13T01:49:50;96140;;;15.3;54
68891;BME280;55932;48.702;8.884;2023-07-13T01:52:30;96140;;;15.2;54
68891;BME280;55932;48.702;8.884;2023-07-13T01:55:01;96140;;;15.2;54
68891;BME280;55932;48.702;8.884;2023-07-13T02:02:13;96160;;;15;54
68891;BME280;55932;48.702;8.884;2023-07-13T02:04:42;96150;;;14.9;54
68891;BME280;55932;48.702;8.884;2023-07-13T02:07:11;96150;;;14.9;54
68891;BME280;55932;48.702;8.884;2023-07-13T02:14:54;96150;;;14.7;54.5
68891;BME280;55932;48.702;8.884;2023-07-13T02:17:34;96160;;;14.6;54.5
68891;BME280;55932;48.702;8.884;2023-07-13T02:20:04;96160;;;14.5;54.5
68891;BME280;55932;48.702;8.884;2023-07-13T02:22:25;96150;;;14.5;54.5
68891;BME280;55932;48.702;8.884;2023-07-13T02:24:56;96150;;;14.5;54.5
68891;BME280;55932;48.702;8.884;2023-07-13T02:27:27;96150;;;14.4;54.5
68891;BME280;55932;48.702;8.884;2023-07-13T02:29:57;96150;;;14.4;54.5
68891;BME280;55932;48.702;8.884;2023-07-13T02:34:47;96160;;;14.3;54.5
68891;BME280;55932;48.702;8.884;2023-07-13T02:37:29;96160;;;14.2;54.5
68891;BME280;55932;48.702;8.884;2023-07-13T02:39:59;96170;;;14.1;54.5
68891;BME280;55932;48.702;8.884;2023-07-13T02:42:30;96170;;;14.1;54.5
68891;BME280;55932;48.702;8.884;2023-07-13T02:45:09;96170;;;14.1;54.5
68891;BME280;55932;48.702;8.884;2023-07-13T02:52:33;96170;;;14.2;54.5
68891;BME280;55932;48.702;8.884;2023-07-13T02:55:03;96170;;;14.2;54.5
68891;BME280;55932;48.702;8.884;2023-07-13T02:57:34;96170;;;14.2;54.5
68891;BME280;55932;48.702;8.884;2023-07-13T03:02:23;96170;;;14.3;54.5
68891;BME280;55932;48.702;8.884;2023-07-13T03:05:04;96170;;;14.4;54
68891;BME280;55932;48.702;8.884;2023-07-13T03:07:33;96160;;;14.5;54
68891;BME280;55932;48.702;8.884;2023-07-13T03:12:59;96160;;;14.6;54
68891;BME280;55932;48.702;8.884;2023-07-13T03:15:25;96170;;;14.6;54
68891;BME280;55932;48.702;8.884;2023-07-13T03:17:46;96170;;;14.7;54
68891;BME280;55932;48.702;8.884;2023-07-13T03:20:26;96160;;;14.7;53.5
68891;BME280;55932;48.702;8.884;2023-07-13T03:22:38;96170;;;14.7;53.5
68891;BME280;55932;48.702;8.884;2023-07-13T03:27:40;96180;;;14.7;53.5
68891;BME280;55932;48.702;8.884;2023-07-13T03:30:10;96180;;;14.6;53.5
68891;BME280;55932;48.702;8.884;2023-07-13T03:32:41;96190;;;14.5;54
68891;BME280;55932;48.702;8.884;2023-07-13T03:35:30;96190;;;14.5;54
68891;BME280;55932;48.702;8.884;2023-07-13T03:37:42;96190;;;14.5;54
68891;BME280;55932;48.702;8.884;2023-07-13T03:40:13;96200;;;14.5;54
68891;BME280;55932;48.702;8.884;2023-07-13T03:42:32;96200;;;14.5;54
68891;BME280;55932;48.702;8.884;2023-07-13T03:45:03;96200;;;14.6;54
68891;BME280;55932;48.702;8.884;2023-07-13T03:47:32;96200;;;14.7;54
68891;BME280;55932;48.702;8.884;2023-07-13T03:50:02;96210;;;14.7;53.5
68891;BME280;55932;48.702;8.884;2023-07-13T03:52:33;96200;;;14.8;53.5
68891;BME280;55932;48.702;8.884;2023-07-13T03:55:03;96210;;;14.8;53.5
68891;BME280;55932;48.702;8.884;2023-07-13T03:57:33;96210;;;14.9;53.5
68891;BME280;55932;48.702;8.884;2023-07-13T04:00:03;96210;;;14.8;53.5
68891;BME280;55932;48.702;8.884;2023-07-13T04:02:42;96210;;;14.8;53.5
68891;BME280;55932;48.702;8.884;2023-07-13T04:05:12;96220;;;14.7;53.5
68891;BME280;55932;48.702;8.884;2023-07-13T04:07:33;96210;;;14.5;53.5
68891;BME280;55932;48.702;8.884;2023-07-13T04:10:03;96220;;;14.4;53.5
68891;BME280;55932;48.702;8.884;2023-07-13T04:14:56;96220;;;14.2;54
68891;BME280;55932;48.702;8.884;2023-07-13T04:17:24;96220;;;14.1;54
68891;BME280;55932;48.702;8.884;2023-07-13T04:19:54;96220;;;14;54
68891;BME280;55932;48.702;8.884;2023-07-13T04:27:26;96230;;;13.8;54
68891;BME280;55932;48.702;8.884;2023-07-13T04:29:56;96230;;;13.8;54
68891;BME280;55932;48.702;8.884;2023-07-13T04:34:57;96240;;;13.7;54.5
68891;BME280;55932;48.702;8.884;2023-07-13T04:37:28;96240;;;13.7;54
68891;BME280;55932;48.702;8.884;2023-07-13T04:39:58;96230;;;13.7;54
68891;BME280;55932;48.702;8.884;2023-07-13T04:44:59;96230;;;13.6;54
68891;BME280;55932;48.702;8.884;2023-07-13T04:47:30;96230;;;13.6;54
68891;BME280;55932;48.702;8.884;2023-07-13T04:55:01;96240;;;13.8;54
68891;BME280;55932;48.702;8.884;2023-07-13T04:57:54;96240;;;14;54
68891;BME280;55932;48.702;8.884;2023-07-13T05:00:34;96250;;;14.2;53.5
68891;BME280;55932;48.702;8.884;2023-07-13T05:03:05;96250;;;14.4;53.5
68891;BME280;55932;48.702;8.884;2023-07-13T05:05:36;96250;;;14.7;53
68891;BME280;55932;48.702;8.884;2023-07-13T05:07:57;96250;;;15;53
68891;BME280;55932;48.702;8.884;2023-07-13T05:10:16;96250;;;15.3;52.5
68891;BME280;55932;48.702;8.884;2023-07-13T05:12:46;96240;;;15.5;52.5
68891;BME280;55932;48.702;8.884;2023-07-13T05:15:16;96250;;;15.7;52.5
68891;BME280;55932;48.702;8.884;2023-07-13T05:20:25;96250;;;15.9;52
68891;BME280;55932;48.702;8.884;2023-07-13T05:25:16;96240;;;16;52
68891;BME280;55932;48.702;8.884;2023-07-13T05:27:46;96250;;;16;52
68891;BME280;55932;48.702;8.884;2023-07-13T05:30:17;96250;;;16.1;52
68891;BME280;55932;48.702;8.884;2023-07-13T05:32:47;96260;;;16.2;52
68891;BME280;55932;48.702;8.884;2023-07-13T05:35:17;96250;;;16.2;52
68891;BME280;55932;48.702;8.884;2023-07-13T05:37:47;96250;;;16.4;52
68891;BME280;55932;48.702;8.884;2023-07-13T05:40:17;96250;;;16.5;52
68891;BME280;55932;48.702;8.884;2023-07-13T05:42:47;96260;;;16.5;52
68891;BME280;55932;48.702;8.884;2023-07-13T05:45:26;96260;;;16.7;52
68891;BME280;55932;48.702;8.884;2023-07-13T05:47:56;96260;;;16.8;51.5
68891;BME280;55932;48.702;8.884;2023-07-13T05:50:17;96260;;;16.8;51.5
68891;BME280;55932;48.702;8.884;2023-07-13T05:52:47;96270;;;16.9;52
68891;BME280;55932;48.702;8.884;2023-07-13T05:55:17;96280;;;17;51.5
68891;BME280;55932;48.702;8.884;2023-07-13T05:57:57;96280;;;17;52
68891;BME280;55932;48.702;8.884;2023-07-13T06:00:17;96280;;;17;52
68891;BME280;55932;48.702;8.884;2023-07-13T06:02:48;96290;;;17;51.5
68891;BME280;55932;48.702;8.884;2023-07-13T06:05:17;96290;;;17;51.5
68891;BME280;55932;48.702;8.884;2023-07-13T06:07:48;96280;;;17;52
68891;BME280;55932;48.702;8.884;2023-07-13T06:10:27;96290;;;17;52
68891;BME280;55932;48.702;8.884;2023-07-13T06:12:57;96290;;;16.9;52
68891;BME280;55932;48.702;8.884;2023-07-13T06:15:18;96300;;;17;52
68891;BME280;55932;48.702;8.884;2023-07-13T06:22:38;96300;;;17.8;51.5
68891;BME280;55932;48.702;8.884;2023-07-13T06:25:08;96300;;;18;51
68891;BME280;55932;48.702;8.884;2023-07-13T06:27:38;96310;;;18.3;51
68891;BME280;55932;48.702;8.884;2023-07-13T06:30:09;96300;;;18.6;51
68891;BME280;55932;48.702;8.884;2023-07-13T06:35:10;96300;;;19.1;50.5
68891;BME280;55932;48.702;8.884;2023-07-13T06:38:04;96310;;;19.3;50.5
68891;BME280;55932;48.702;8.884;2023-07-13T06:40:34;96300;;;19.6;50
68891;BME280;55932;48.702;8.884;2023-07-13T06:43:13;96300;;;19.7;50
68891;BME280;55932;48.702;8.884;2023-07-13T06:47:54;96310;;;19.8;50
68891;BME280;55932;48.702;8.884;2023-07-13T06:50:24;96310;;;19.7;50
68891;BME280;55932;48.702;8.884;2023-07-13T06:52:54;96310;;;19.5;50
68891;BME280;55932;48.702;8.884;2023-07-13T06:55:14;96310;;;19.4;50.5
68891;BME280;55932;48.702;8.884;2023-07-13T06:57:45;96310;;;19.4;50.5
68891;BME280;55932;48.702;8.884;2023-07-13T07:07:49;96330;;;19.5;50.5
68891;BME280;55932;48.702;8.884;2023-07-13T07:10:17;96320;;;19.6;50.5
68891;BME280;55932;48.702;8.884;2023-07-13T07:12:48;96320;;;19.9;50.5
68891;BME280;55932;48.702;8.884;2023-07-13T07:15:50;96320;;;20.8;50.5
68891;BME280;55932;48.702;8.884;2023-07-13T07:18:30;96330;;;21.8;50
68891;BME280;55932;48.702;8.884;2023-07-13T07:23:13;96320;;;24.1;46.5
68891;BME280;55932;48.702;8.884;2023-07-13T07:25:43;96320;;;24.7;46
68891;BME280;55932;48.702;8.884;2023-07-13T07:28:15;96320;;;25.3;46
68891;BME280;55932;48.702;8.884;2023-07-13T07:33:15;96310;;;28;43.5
68891;BME280;55932;48.702;8.884;2023-07-13T07:35:45;96300;;;28.9;43
68891;BME280;55932;48.702;8.884;2023-07-13T07:38:05;96300;;;29.4;42
68891;BME280;55932;48.702;8.884;2023-07-13T07:40:38;96300;;;28.8;43
68891;BME280;55932;48.702;8.884;2023-07-13T07:43:06;96300;;;28.1;45.5
68891;BME280;55932;48.702;8.884;2023-07-13T07:45:26;96310;;;28.5;45.5
68891;BME280;55932;48.702;8.884;2023-07-13T07:47:55;96310;;;28.5;46
68891;BME280;55932;48.702;8.884;2023-07-13T07:50:26;96310;;;29.2;45
68891;BME280;55932;48.702;8.884;2023-07-13T07:55:26;96310;;;29.6;45.5
68891;BME280;55932;48.702;8.884;2023-07-13T08:05:29;96320;;;29.8;46
68891;BME280;55932;48.702;8.884;2023-07-13T08:10:54;96320;;;30.1;46
68891;BME280;55932;48.702;8.884;2023-07-13T08:13:23;96320;;;30.2;45.5
68891;BME280;55932;48.702;8.884;2023-07-13T08:15:53;96320;;;29.9;46.5
68891;BME280;55932;48.702;8.884;2023-07-13T08:18:24;96330;;;30.2;46
68891;BME280;55932;48.702;8.884;2023-07-13T08:25:56;96320;;;29.8;46
68891;BME280;55932;48.702;8.884;2023-07-13T08:33:36;96320;;;29.6;47.5
68891;BME280;55932;48.702;8.884;2023-07-13T08:36:08;96320;;;29.9;47
68891;BME280;55932;48.702;8.884;2023-07-13T08:38:30;96310;;;29.6;47
68891;BME280;55932;48.702;8.884;2023-07-13T08:43:20;96310;;;28.9;48.5
68891;BME280;55932;48.702;8.884;2023-07-13T08:45:53;96310;;;28.8;49
68891;BME280;55932;48.702;8.884;2023-07-13T08:48:27;96310;;;29.8;47
68891;BME280;55932;48.702;8.884;2023-07-13T08:51:23;96310;;;30.5;46.5
68891;BME280;55932;48.702;8.884;2023-07-13T08:53:19;96300;;;31;45.5
68891;BME280;55932;48.702;8.884;2023-07-13T08:55:51;96310;;;29.6;46.5
68891;BME280;55932;48.702;8.884;2023-07-13T09:00:49;96310;;;26.2;50
68891;BME280;55932;48.702;8.884;2023-07-13T09:03:16;96320;;;25.5;51
68891;BME280;55932;48.702;8.884;2023-07-13T09:05:40;96320;;;25;51
68891;BME280;55932;48.702;8.884;2023-07-13T09:09:16;96320;;;24.8;51
68891;BME280;55932;48.702;8.884;2023-07-13T09:15:53;96320;;;24.1;51.5
68891;BME280;55932;48.702;8.884;2023-07-13T09:18:25;96320;;;25.5;51
68891;BME280;55932;48.702;8.884;2023-07-13T09:20:55;96320;;;25.9;50
68891;BME280;55932;48.702;8.884;2023-07-13T09:23:15;96330;;;25.1;50
68891;BME280;55932;48.702;8.884;2023-07-13T09:30:47;96340;;;23.5;51.5
68891;BME280;55932;48.702;8.884;2023-07-13T09:33:14;96330;;;23.7;51
68891;BME280;55932;48.702;8.884;2023-07-13T09:35:45;96330;;;24.1;51
68891;BME280;55932;48.702;8.884;2023-07-13T09:38:17;96320;;;24.3;50.5
68891;BME280;55932;48.702;8.884;2023-07-13T09:41:03;96320;;;25.5;49.5
68891;BME280;55932;48.702;8.884;2023-07-13T09:43:27;96310;;;26.9;48.5
68891;BME280;55932;48.702;8.884;2023-07-13T09:45:59;96310;;;27.9;47.5
68891;BME280;55932;48.702;8.884;2023-07-13T09:50:47;96310;;;28.8;46.5
68891;BME280;55932;48.702;8.884;2023-07-13T09:53:18;96320;;;29.5;46
68891;BME280;55932;48.702;8.884;2023-07-13T09:55:48;96310;;;29;46.5
68891;BME280;55932;48.702;8.884;2023-07-13T09:58:19;96310;;;29.2;46
68891;BME280;55932;48.702;8.884;2023-07-13T10:01:03;96320;;;28.2;46.5
68891;BME280;55932;48.702;8.884;2023-07-13T10:03:20;96320;;;26.7;48
68891;BME280;55932;48.702;8.884;2023-07-13T10:05:50;96320;;;25.5;49
68891;BME280;55932;48.702;8.884;2023-07-13T10:11:11;96320;;;25;49.5
68891;BME280;55932;48.702;8.884;2023-07-13T10:18:42;96320;;;26.9;48
68891;BME280;55932;48.702;8.884;2023-07-13T10:21:11;96320;;;27.4;47.5
68891;BME280;55932;48.702;8.884;2023-07-13T10:23:33;96320;;;27.1;47
68891;BME280;55932;48.702;8.884;2023-07-13T10:28:30;96320;;;25.8;48.5
68891;BME280;55932;48.702;8.884;2023-07-13T10:30:52;96320;;;25.3;49
68891;BME280;55932;48.702;8.884;2023-07-13T10:38:24;96330;;;24.6;49.5
68891;BME280;55932;48.702;8.884;2023-07-13T10:40:56;96320;;;24.9;49.5
68891;BME280;55932;48.702;8.884;2023-07-13T10:43:25;96320;;;25.8;49.5
68891;BME280;55932;48.702;8.884;2023-07-13T10:45:55;96320;;;26.6;49
68891;BME280;55932;48.702;8.884;2023-07-13T10:48:26;96320;;;26.8;48
68891;BME280;55932;48.702;8.884;2023-07-13T10:50:56;96310;;;27.1;47.5
68891;BME280;55932;48.702;8.884;2023-07-13T10:53:28;96310;;;26.9;47
68891;BME280;55932;48.702;8.884;2023-07-13T10:55:58;96310;;;26.6;47.5
68891;BME280;55932;48.702;8.884;2023-07-13T10:58:32;96320;;;26.1;48
68891;BME280;55932;48.702;8.884;2023-07-13T11:08:53;96300;;;27.9;46.5
68891;BME280;55932;48.702;8.884;2023-07-13T11:11:42;96300;;;28.5;46.5
68891;BME280;55932;48.702;8.884;2023-07-13T11:16:12;96290;;;29.3;45
68891;BME280;55932;48.702;8.884;2023-07-13T11:18:49;96300;;;28.2;45.5
68891;BME280;55932;48.702;8.884;2023-07-13T11:21:15;96290;;;27.3;46.5
68891;BME280;55932;48.702;8.884;2023-07-13T11:31:02;96290;;;26.5;48
68891;BME280;55932;48.702;8.884;2023-07-13T11:34:15;96290;;;28;47
68891;BME280;55932;48.702;8.884;2023-07-13T11:36:29;96300;;;29.5;45.5
68891;BME280;55932;48.702;8.884;2023-07-13T11:39:04;96290;;;30;45
68891;BME280;55932;48.702;8.884;2023-07-13T11:41:33;96290;;;30.6;44.5
68891;BME280;55932;48.702;8.884;2023-07-13T11:46:26;96290;;;31.6;43
68891;BME280;55932;48.702;8.884;2023-07-13T11:48:46;96290;;;29.5;44.5
68891;BME280;55932;48.702;8.884;2023-07-13T11:51:19;96290;;;28.4;46
68891;BME280;55932;48.702;8.884;2023-07-13T11:53:46;96290;;;27.3;47
68891;BME280;55932;48.702;8.884;2023-07-13T11:56:16;96300;;;26.8;47.5
68891;BME280;55932;48.702;8.884;2023-07-13T12:01:05;96290;;;29;46.5
68891;BME280;55932;48.702;8.884;2023-07-13T12:03:35;96300;;;30.2;45.5
68891;BME280;55932;48.702;8.884;2023-07-13T12:11:15;96300;;;27.2;47.5
68891;BME280;55932;48.702;8.884;2023-07-13T12:13:38;96290;;;26.7;47.5
68891;BME280;55932;48.702;8.884;2023-07-13T12:18:50;96290;;;28.4;47
68891;BME280;55932;48.702;8.884;2023-07-13T12:21:22;96300;;;29.4;45.5
68891;BME280;55932;48.702;8.884;2023-07-13T12:23:50;96300;;;30;45
68891;BME280;55932;48.702;8.884;2023-07-13T12:26:20;96300;;;30.1;44.5
68891;BME280;55932;48.702;8.884;2023-07-13T12:28:52;96290;;;28.4;46
68891;BME280;55932;48.702;8.884;2023-07-13T12:31:24;96280;;;29;46
68891;BME280;55932;48.702;8.884;2023-07-13T12:36:10;96290;;;29;45.5
68891;BME280;55932;48.702;8.884;2023-07-13T12:38:41;96300;;;27.5;47
68891;BME280;55932;48.702;8.884;2023-07-13T12:41:14;96300;;;26.9;47.5
68891;BME280;55932;48.702;8.884;2023-07-13T12:43:42;96290;;;27.5;47.5
68891;BME280;55932;48.702;8.884;2023-07-13T12:46:15;96290;;;29.8;45.5
68891;BME280;55932;48.702;8.884;2023-07-13T12:48:43;96300;;;31.6;43.5
68891;BME280;55932;48.702;8.884;2023-07-13T12:51:14;96300;;;32.6;42
68891;BME280;55932;48.702;8.884;2023-07-13T12:53:47;96280;;;33.2;42
68891;BME280;55932;48.702;8.884;2023-07-13T12:56:18;96290;;;33.2;42
68891;BME280;55932;48.702;8.884;2023-07-13T12:58:45;96290;;;32.8;42
68891;BME280;55932;48.702;8.884;2023-07-13T13:06:22;96300;;;32.1;43
68891;BME280;55932;48.702;8.884;2023-07-13T13:14:00;96290;;;32.7;42.5
68891;BME280;55932;48.702;8.884;2023-07-13T13:16:30;96290;;;32.9;42
68891;BME280;55932;48.702;8.884;2023-07-13T13:21:39;96290;;;32.1;42.5
68891;BME280;55932;48.702;8.884;2023-07-13T13:23:59;96290;;;32;43
68891;BME280;55932;48.702;8.884;2023-07-13T13:26:31;96290;;;32.5;42.5
68891;BME280;55932;48.702;8.884;2023-07-13T13:29:11;96290;;;33;42
68891;BME280;55932;48.702;8.884;2023-07-13T13:31:18;96290;;;33.5;41
68891;BME280;55932;48.702;8.884;2023-07-13T13:33:49;96290;;;32.9;42
68891;BME280;55932;48.702;8.884;2023-07-13T13:38:50;96300;;;30.9;43.5
68891;BME280;55932;48.702;8.884;2023-07-13T13:43:51;96280;;;31.7;42.5
68891;BME280;55932;48.702;8.884;2023-07-13T13:46:22;96290;;;30.2;44
68891;BME280;55932;48.702;8.884;2023-07-13T13:53:53;96280;;;30.6;44
68891;BME280;55932;48.702;8.884;2023-07-13T13:56:24;96280;;;31.4;42.5
68891;BME280;55932;48.702;8.884;2023-07-13T13:58:54;96280;;;33;41
68891;BME280;55932;48.702;8.884;2023-07-13T14:09:19;96280;;;33;41
68891;BME280;55932;48.702;8.884;2023-07-13T14:11:58;96280;;;33.6;40
68891;BME280;55932;48.702;8.884;2023-07-13T14:14:29;96280;;;34;39.5
68891;BME280;55932;48.702;8.884;2023-07-13T14:16:51;96280;;;31.6;41.5
68891;BME280;55932;48.702;8.884;2023-07-13T14:19:21;96290;;;29.1;44.5
68891;BME280;55932;48.702;8.884;2023-07-13T14:24:20;96290;;;27;47
68891;BME280;55932;48.702;8.884;2023-07-13T14:26:41;96290;;;26.6;47
68891;BME280;55932;48.702;8.884;2023-07-13T14:29:14;96300;;;26.2;47.5
68891;BME280;55932;48.702;8.884;2023-07-13T14:34:42;96290;;;27.5;46
68891;BME280;55932;48.702;8.884;2023-07-13T14:36:54;96300;;;30.3;43
68891;BME280;55932;48.702;8.884;2023-07-13T14:39:26;96290;;;31.5;41.5
68891;BME280;55932;48.702;8.884;2023-07-13T14:41:56;96290;;;32;41
68891;BME280;55932;48.702;8.884;2023-07-13T14:44:27;96290;;;32.9;39.5
68891;BME280;55932;48.702;8.884;2023-07-13T14:46:57;96290;;;32.2;40
68891;BME280;55932;48.702;8.884;2023-07-13T14:51:35;96300;;;30.1;42.5
68891;BME280;55932;48.702;8.884;2023-07-13T14:54:08;96300;;;30.7;42
68891;BME280;55932;48.702;8.884;2023-07-13T14:56:36;96300;;;29.4;43
68891;BME280;55932;48.702;8.884;2023-07-13T14:59:07;96300;;;30;42.5
68891;BME280;55932;48.702;8.884;2023-07-13T15:01:37;96300;;;31.1;41
68891;BME280;55932;48.702;8.884;2023-07-13T15:04:08;96290;;;31.5;40.5
68891;BME280;55932;48.702;8.884;2023-07-13T15:06:54;96300;;;31.6;40.5
68891;BME280;55932;48.702;8.884;2023-07-13T15:09:32;96300;;;31.9;40
68891;BME280;55932;48.702;8.884;2023-07-13T15:12:02;96300;;;31.1;40.5
68891;BME280;55932;48.702;8.884;2023-07-13T15:14:33;96300;;;29.5;42
68891;BME280;55932;48.702;8.884;2023-07-13T15:17:04;96300;;;28.3;43.5
68891;BME280;55932;48.702;8.884;2023-07-13T15:21:54;96310;;;30.2;41.5
68891;BME280;55932;48.702;8.884;2023-07-13T15:24:24;96300;;;29.1;42.5
68891;BME280;55932;48.702;8.884;2023-07-13T15:26:53;96300;;;27.5;44
68891;BME280;55932;48.702;8.884;2023-07-13T15:29:23;96310;;;27.7;44
68891;BME280;55932;48.702;8.884;2023-07-13T15:31:54;96300;;;28.9;43
68891;BME280;55932;48.702;8.884;2023-07-13T15:34:24;96300;;;29.3;42
68891;BME280;55932;48.702;8.884;2023-07-13T15:36:54;96300;;;30.3;41
68891;BME280;55932;48.702;8.884;2023-07-13T15:39:33;96300;;;31.2;40
68891;BME280;55932;48.702;8.884;2023-07-13T15:42:03;96300;;;31.6;39
68891;BME280;55932;48.702;8.884;2023-07-13T15:44:28;96300;;;31.7;39
68891;BME280;55932;48.702;8.884;2023-07-13T15:46:54;96300;;;31.9;38.5
68891;BME280;55932;48.702;8.884;2023-07-13T15:51:43;96300;;;29.9;41
68891;BME280;55932;48.702;8.884;2023-07-13T15:54:14;96300;;;30.4;40.5
68891;BME280;55932;48.702;8.884;2023-07-13T15:56:45;96300;;;29.3;41.5
68891;BME280;55932;48.702;8.884;2023-07-13T16:04:17;96300;;;26.2;45
68891;BME280;55932;48.702;8.884;2023-07-13T16:06:46;96300;;;28.2;43
68891;BME280;55932;48.702;8.884;2023-07-13T16:09:22;96290;;;28.9;42
68891;BME280;55932;48.702;8.884;2023-07-13T16:14:29;96290;;;29.9;40.5
68891;BME280;55932;48.702;8.884;2023-07-13T16:17:10;96290;;;30.3;40
68891;BME280;55932;48.702;8.884;2023-07-13T16:19:29;96300;;;30.7;39.5
68891;BME280;55932;48.702;8.884;2023-07-13T16:21:48;96290;;;30.8;39.5
68891;BME280;55932;48.702;8.884;2023-07-13T16:24:21;96290;;;31.1;39
68891;BME280;55932;48.702;8.884;2023-07-13T16:31:59;96310;;;30.3;40
68891;BME280;55932;48.702;8.884;2023-07-13T16:34:21;96310;;;29.9;40.5
68891;BME280;55932;48.702;8.884;2023-07-13T16:36:52;96310;;;29.6;40.5
68891;BME280;55932;48.702;8.884;2023-07-13T16:39:22;96310;;;29.7;40.5
68891;BME280;55932;48.702;8.884;2023-07-13T16:41:57;96310;;;30.2;40
68891;BME280;55932;48.702;8.884;2023-07-13T16:44:34;96310;;;30.3;39.5
68891;BME280;55932;48.702;8.884;2023-07-13T16:47:05;96310;;;30.1;40
68891;BME280;55932;48.702;8.884;2023-07-13T16:49:36;96310;;;29.8;40
68891;BME280;55932;48.702;8.884;2023-07-13T16:52:04;96320;;;29.7;40
68891;BME280;55932;48.702;8.884;2023-07-13T16:57:19;96320;;;29.2;40.5
68891;BME280;55932;48.702;8.884;2023-07-13T16:59:56;96320;;;28.9;40.5
68891;BME280;55932;48.702;8.884;2023-07-13T17:02:31;96320;;;28;41.5
68891;BME280;55932;48.702;8.884;2023-07-13T17:07:07;96330;;;26.4;43.5
68891;BME280;55932;48.702;8.884;2023-07-13T17:09:37;96330;;;25.8;44.5
68891;BME280;55932;48.702;8.884;2023-07-13T17:12:08;96330;;;25.6;44.5
68891;BME280;55932;48.702;8.884;2023-07-13T17:14:37;96330;;;25.4;45
68891;BME280;55932;48.702;8.884;2023-07-13T17:17:16;96320;;;25.2;45.5
68891;BME280;55932;48.702;8.884;2023-07-13T17:21:57;96320;;;24.8;45.5
68891;BME280;55932;48.702;8.884;2023-07-13T17:24:27;96330;;;24.7;46
68891;BME280;55932;48.702;8.884;2023-07-13T17:26:58;96320;;;24.5;46
68891;BME280;55932;48.702;8.884;2023-07-13T17:29:28;96320;;;24.4;46
68891;BME280;55932;48.702;8.884;2023-07-13T17:31:59;96330;;;24.3;46
68891;BME280;55932;48.702;8.884;2023-07-13T17:34:29;96330;;;24.2;46
68891;BME280;55932;48.702;8.884;2023-07-13T17:47:24;96330;;;23.6;46.5
68891;BME280;55932;48.702;8.884;2023-07-13T17:52:14;96330;;;23.5;46.5
68891;BME280;55932;48.702;8.884;2023-07-13T17:54:44;96330;;;23.5;46.5
68891;BME280;55932;48.702;8.884;2023-07-13T17:57:24;96330;;;23.4;47
68891;BME280;55932;48.702;8.884;2023-07-13T17:59:44;96330;;;23.3;47
68891;BME280;55932;48.702;8.884;2023-07-13T18:02:16;96340;;;23.1;47
68891;BME280;55932;48.702;8.884;2023-07-13T18:04:56;96330;;;23;47
68891;BME280;55932;48.702;8.884;2023-07-13T18:07:27;96330;;;22.9;47
68891;BME280;55932;48.702;8.884;2023-07-13T18:09:56;96340;;;22.8;47
68891;BME280;55932;48.702;8.884;2023-07-13T18:12:25;96330;;;22.6;47.5
68891;BME280;55932;48.702;8.884;2023-07-13T18:17:16;96350;;;22.4;47.5
68891;BME280;55932;48.702;8.884;2023-07-13T18:24:58;96350;;;22;47.5
68891;BME280;55932;48.702;8.884;2023-07-13T18:27:29;96350;;;21.9;48
68891;BME280;55932;48.702;8.884;2023-07-13T18:30:00;96350;;;21.8;48
68891;BME280;55932;48.702;8.884;2023-07-13T18:34:58;96350;;;21.7;48
68891;BME280;55932;48.702;8.884;2023-07-13T18:37:29;96360;;;21.6;48
68891;BME280;55932;48.702;8.884;2023-07-13T18:39:50;96360;;;21.4;48
68891;BME280;55932;48.702;8.884;2023-07-13T18:47:32;96360;;;21.1;48.5
68891;BME280;55932;48.702;8.884;2023-07-13T18:50:09;96360;;;20.9;48.5
68891;BME280;55932;48.702;8.884;2023-07-13T18:52:33;96370;;;20.8;48.5
68891;BME280;55932;48.702;8.884;2023-07-13T18:55:12;96360;;;20.7;48.5
68891;BME280;55932;48.702;8.884;2023-07-13T18:57:50;96370;;;20.7;48.5
68891;BME280;55932;48.702;8.884;2023-07-13T19:10:11;96370;;;20;49
68891;BME280;55932;48.702;8.884;2023-07-13T19:12:38;96370;;;19.9;49
68891;BME280;55932;48.702;8.884;2023-07-13T19:15:20;96380;;;19.8;49
68891;BME280;55932;48.702;8.884;2023-07-13T19:17:28;96380;;;19.8;49
68891;BME280;55932;48.702;8.884;2023-07-13T19:19:57;96380;;;19.7;49
68891;BME280;55932;48.702;8.884;2023-07-13T19:22:28;96390;;;19.5;49
68891;BME280;55932;48.702;8.884;2023-07-13T19:25:11;96390;;;19.4;49.5